South Weymouth, Massachusetts
Current Conditions -  °F | °C
As of 2:53 AM on Tuesday 27 Jan 2015 (Local Time) from KOWD Reporting Station
Moderate Snow Moderate Snow  
Wind Chill: -18°   Ceiling: 700
Heat Index: -9°   Visibility: 0.5mi
Dew Point: -11°   Wind: 20mph
Humidity: 84%   Direction: 350°N
Pressure: 29.67"   Gusts: 31mph
Location:  42.1666°N, 70.9521°W
Report Text: KOWD 270753Z 35017G27KT 1/2SM SN FZFG VV007 M09/M11 A2967 RMK AO2 PK WND 36031/0728 SNB24 SLP047 P0000 T10891111 $
Loading
Personal Weather Stations






























Interactive Weather Map New forecast layout! Learn more

10-Day Weather Forecast

Advertisements
Track Severe Weather on mobile